createdAt,value
2019-03-11T00:00:01.084Z,929.29
2019-03-11T00:00:13.694Z,929.28
2019-03-11T00:00:26.690Z,929.29
2019-03-11T00:00:39.234Z,929.3
2019-03-11T00:00:52.241Z,929.32
2019-03-11T00:01:05.189Z,929.3
2019-03-11T00:01:18.230Z,929.29
2019-03-11T00:01:31.217Z,929.27
2019-03-11T00:01:44.264Z,929.32
2019-03-11T00:01:57.284Z,929.34
2019-03-11T00:02:10.315Z,929.39
2019-03-11T00:02:23.345Z,929.34
2019-03-11T00:02:36.350Z,929.32
2019-03-11T00:02:49.347Z,929.36
2019-03-11T00:03:02.340Z,929.33
2019-03-11T00:03:15.379Z,929.35
2019-03-11T00:03:28.376Z,929.36
2019-03-11T00:03:41.360Z,929.32
2019-03-11T00:03:54.327Z,929.33
2019-03-11T00:04:09.370Z,929.33
2019-03-11T00:04:28.108Z,929.3
2019-03-11T00:04:41.204Z,929.3
2019-03-11T00:04:54.202Z,929.33
2019-03-11T00:05:07.444Z,929.3
2019-03-11T00:05:20.474Z,929.32
2019-03-11T00:05:33.498Z,929.31
2019-03-11T00:05:46.524Z,929.32
2019-03-11T00:05:59.523Z,929.35
2019-03-11T00:06:12.526Z,929.36
2019-03-11T00:06:25.088Z,929.34
2019-03-11T00:06:38.142Z,929.31
2019-03-11T00:06:51.141Z,929.35
2019-03-11T00:07:04.170Z,929.33
2019-03-11T00:07:17.157Z,929.35
2019-03-11T00:07:30.137Z,929.32
2019-03-11T00:07:43.153Z,929.35
2019-03-11T00:07:56.167Z,929.35
2019-03-11T00:08:09.150Z,929.35
2019-03-11T00:08:22.128Z,929.35
2019-03-11T00:08:35.191Z,929.36
2019-03-11T00:08:48.163Z,929.32
2019-03-11T00:09:01.171Z,929.33
2019-03-11T00:09:14.239Z,929.36
2019-03-11T00:09:27.240Z,929.39
2019-03-11T00:09:40.236Z,929.41
2019-03-11T00:09:53.249Z,929.38
2019-03-11T00:10:06.302Z,929.37
2019-03-11T00:10:19.382Z,929.4
2019-03-11T00:10:32.386Z,929.37
2019-03-11T00:10:45.377Z,929.41
2019-03-11T00:10:58.603Z,929.42
2019-03-11T00:11:11.667Z,929.42
2019-03-11T00:11:24.702Z,929.42
2019-03-11T00:11:37.703Z,929.41
2019-03-11T00:11:50.668Z,929.41
2019-03-11T00:12:03.262Z,929.39
2019-03-11T00:12:16.285Z,929.38
2019-03-11T00:12:29.290Z,929.43
2019-03-11T00:12:42.317Z,929.42
2019-03-11T00:12:55.363Z,929.38
2019-03-11T00:13:08.352Z,929.41
2019-03-11T00:13:21.410Z,929.42
2019-03-11T00:13:34.395Z,929.43
2019-03-11T00:13:47.415Z,929.41
2019-03-11T00:14:00.411Z,929.42
2019-03-11T00:14:13.475Z,929.45
2019-03-11T00:14:26.527Z,929.42
2019-03-11T00:14:39.511Z,929.46
2019-03-11T00:14:52.560Z,929.45
2019-03-11T00:15:05.586Z,929.47
2019-03-11T00:15:18.540Z,929.46
2019-03-11T00:15:31.078Z,929.44
2019-03-11T00:15:44.117Z,929.46
2019-03-11T00:15:57.077Z,929.44
2019-03-11T00:16:10.137Z,929.46
2019-03-11T00:16:23.179Z,929.46
2019-03-11T00:16:36.206Z,929.48
2019-03-11T00:16:49.182Z,929.48
2019-03-11T00:17:02.230Z,929.48
2019-03-11T00:17:15.212Z,929.5
2019-03-11T00:17:28.197Z,929.51
2019-03-11T00:17:41.204Z,929.47
2019-03-11T00:17:54.208Z,929.5
2019-03-11T00:18:07.196Z,929.52
2019-03-11T00:18:20.183Z,929.5
2019-03-11T00:18:33.189Z,929.47
2019-03-11T00:18:46.178Z,929.52
2019-03-11T00:18:59.219Z,929.51
2019-03-11T00:19:12.248Z,929.49
2019-03-11T00:19:25.282Z,929.51
2019-03-11T00:19:38.352Z,929.47
2019-03-11T00:19:51.387Z,929.51
2019-03-11T00:20:04.474Z,929.54
2019-03-11T00:20:17.469Z,929.49
2019-03-11T00:20:30.485Z,929.54
2019-03-11T00:20:43.472Z,929.53
2019-03-11T00:20:56.530Z,929.52
2019-03-11T00:21:09.523Z,929.52
2019-03-11T00:21:22.040Z,929.52
2019-03-11T00:21:35.072Z,929.53
2019-03-11T00:21:48.071Z,929.5
2019-03-11T00:22:01.093Z,929.51
2019-03-11T00:22:14.101Z,929.53
2019-03-11T00:22:27.135Z,929.53
2019-03-11T00:22:40.113Z,929.51
2019-03-11T00:22:53.120Z,929.51
2019-03-11T00:23:06.144Z,929.52
2019-03-11T00:23:19.132Z,929.48
2019-03-11T00:23:32.109Z,929.57
2019-03-11T00:23:45.093Z,929.53
2019-03-11T00:23:58.072Z,929.54
2019-03-11T00:24:11.065Z,929.5
2019-03-11T00:24:24.084Z,929.53
2019-03-11T00:24:37.093Z,929.53
2019-03-11T00:24:50.099Z,929.54
2019-03-11T00:25:03.153Z,929.58
2019-03-11T00:25:16.169Z,929.51
2019-03-11T00:25:29.127Z,929.52
2019-03-11T00:25:42.162Z,929.52
2019-03-11T00:25:55.205Z,929.53
2019-03-11T00:26:08.220Z,929.53
2019-03-11T00:26:21.270Z,929.55
2019-03-11T00:26:34.290Z,929.55
2019-03-11T00:26:47.389Z,929.54
2019-03-11T00:27:00.417Z,929.55
2019-03-11T00:27:13.452Z,929.56
2019-03-11T00:27:26.431Z,929.57
2019-03-11T00:27:39.428Z,929.57
2019-03-11T00:27:52.438Z,929.58
2019-03-11T00:28:05.466Z,929.57
2019-03-11T00:28:18.444Z,929.55
2019-03-11T00:28:31.484Z,929.6
2019-03-11T00:28:44.477Z,929.56
2019-03-11T00:28:57.481Z,929.55
2019-03-11T00:29:10.468Z,929.55
2019-03-11T00:29:23.511Z,929.59
2019-03-11T00:29:36.572Z,929.57
2019-03-11T00:29:50.621Z,929.59
2019-03-11T00:30:03.600Z,929.59
2019-03-11T00:30:16.657Z,929.56
2019-03-11T00:30:29.675Z,929.57
2019-03-11T00:30:42.643Z,929.58
2019-03-11T00:30:55.654Z,929.56
2019-03-11T00:31:08.636Z,929.57
2019-03-11T00:31:21.660Z,929.59
2019-03-11T00:31:34.683Z,929.59
2019-03-11T00:31:47.679Z,929.59
2019-03-11T00:32:00.716Z,929.64
2019-03-11T00:32:13.727Z,929.62
2019-03-11T00:32:26.810Z,929.62
2019-03-11T00:32:39.678Z,929.58
2019-03-11T00:32:52.759Z,929.62
2019-03-11T00:33:05.837Z,929.61
2019-03-11T00:33:18.858Z,929.64
2019-03-11T00:33:31.836Z,929.62
2019-03-11T00:33:44.831Z,929.6
2019-03-11T00:33:57.851Z,929.63
2019-03-11T00:34:10.854Z,929.61
2019-03-11T00:34:23.881Z,929.57
2019-03-11T00:34:36.971Z,929.62
2019-03-11T00:34:49.942Z,929.65
2019-03-11T00:35:02.899Z,929.62
2019-03-11T00:35:15.997Z,929.6
2019-03-11T00:35:29.056Z,929.62
2019-03-11T00:35:42.089Z,929.68
2019-03-11T00:35:55.121Z,929.67
2019-03-11T00:36:08.087Z,929.68
2019-03-11T00:36:21.099Z,929.69
2019-03-11T00:36:34.073Z,929.67
2019-03-11T00:36:47.162Z,929.68
2019-03-11T00:37:00.198Z,929.7
2019-03-11T00:37:12.299Z,929.69
2019-03-11T00:37:25.280Z,929.72
2019-03-11T00:37:38.319Z,929.74
2019-03-11T00:37:51.322Z,929.72
2019-03-11T00:38:04.291Z,929.73
2019-03-11T00:38:17.248Z,929.73
2019-03-11T00:38:30.219Z,929.72
2019-03-11T00:38:43.164Z,929.75
2019-03-11T00:38:56.201Z,929.74
2019-03-11T00:39:09.218Z,929.75
2019-03-11T00:39:22.223Z,929.77
2019-03-11T00:39:35.302Z,929.76
2019-03-11T00:39:48.317Z,929.75
2019-03-11T00:40:01.407Z,929.75
2019-03-11T00:40:13.976Z,929.78
2019-03-11T00:40:26.991Z,929.77
2019-03-11T00:40:39.965Z,929.77
2019-03-11T00:40:52.993Z,929.77
2019-03-11T00:41:07.161Z,929.78
2019-03-11T00:41:20.170Z,929.79
2019-03-11T00:41:33.169Z,929.79
2019-03-11T00:41:46.224Z,929.77
2019-03-11T00:41:59.286Z,929.78
2019-03-11T00:42:12.324Z,929.79
2019-03-11T00:42:25.415Z,929.75
2019-03-11T00:42:38.524Z,929.81
2019-03-11T00:42:51.486Z,929.79
2019-03-11T00:43:04.514Z,929.79
2019-03-11T00:43:17.558Z,929.79
2019-03-11T00:43:30.597Z,929.77
2019-03-11T00:43:43.611Z,929.77
2019-03-11T00:43:56.638Z,929.75
2019-03-11T00:44:09.666Z,929.74
2019-03-11T00:44:22.666Z,929.76
2019-03-11T00:44:35.703Z,929.77
2019-03-11T00:44:48.716Z,929.79
2019-03-11T00:45:01.777Z,929.79
2019-03-11T00:45:14.829Z,929.77
2019-03-11T00:45:28.604Z,929.75
2019-03-11T00:45:41.599Z,929.76
2019-03-11T00:45:54.664Z,929.78
2019-03-11T00:46:07.689Z,929.75
2019-03-11T00:46:20.711Z,929.76
2019-03-11T00:46:33.683Z,929.77
2019-03-11T00:46:46.669Z,929.74
2019-03-11T00:46:59.671Z,929.73
2019-03-11T00:47:12.176Z,929.78
2019-03-11T00:47:25.151Z,929.75
2019-03-11T00:47:38.161Z,929.74
2019-03-11T00:48:02.751Z,929.76
2019-03-11T00:48:15.391Z,929.73
2019-03-11T00:48:28.375Z,929.72
2019-03-11T00:48:41.348Z,929.75
2019-03-11T00:48:54.396Z,929.71
2019-03-11T00:49:07.441Z,929.74
2019-03-11T00:49:20.396Z,929.73
2019-03-11T00:49:33.381Z,929.73
2019-03-11T00:49:46.387Z,929.69
2019-03-11T00:49:59.345Z,929.71
2019-03-11T00:50:12.323Z,929.7
2019-03-11T00:50:25.344Z,929.71
2019-03-11T00:50:38.390Z,929.72
2019-03-11T00:50:51.392Z,929.73
2019-03-11T00:51:04.421Z,929.68
2019-03-11T00:51:17.395Z,929.71
2019-03-11T00:51:30.422Z,929.72
2019-03-11T00:51:43.405Z,929.73
2019-03-11T00:51:55.950Z,929.73
2019-03-11T00:52:09.009Z,929.71
2019-03-11T00:52:22.038Z,929.69
2019-03-11T00:52:35.283Z,929.66
2019-03-11T00:52:48.069Z,929.7
2019-03-11T00:53:01.221Z,929.67
2019-03-11T00:53:14.196Z,929.66
2019-03-11T00:53:27.221Z,929.7
2019-03-11T00:53:40.206Z,929.76
2019-03-11T00:53:53.172Z,929.73
2019-03-11T00:54:06.216Z,929.78
2019-03-11T00:54:19.268Z,929.74
2019-03-11T00:54:32.280Z,929.71
2019-03-11T00:54:45.318Z,929.73
2019-03-11T00:54:58.319Z,929.78
2019-03-11T00:55:11.350Z,929.74
2019-03-11T00:55:24.341Z,929.74
2019-03-11T00:55:37.369Z,929.7
2019-03-11T00:55:50.411Z,929.69
2019-03-11T00:56:03.450Z,929.71
2019-03-11T00:56:17.398Z,929.74
2019-03-11T00:56:30.384Z,929.72
2019-03-11T00:56:43.387Z,929.72
2019-03-11T00:56:56.408Z,929.69
2019-03-11T00:57:09.449Z,929.69
2019-03-11T00:57:22.429Z,929.7
2019-03-11T00:57:35.424Z,929.69
2019-03-11T00:57:48.447Z,929.73
2019-03-11T00:58:01.478Z,929.76
2019-03-11T00:58:14.510Z,929.75
2019-03-11T00:58:28.392Z,929.74
2019-03-11T00:58:41.416Z,929.75
2019-03-11T00:58:54.386Z,929.73
2019-03-11T00:59:07.344Z,929.76
2019-03-11T00:59:20.436Z,929.79
2019-03-11T00:59:33.419Z,929.78
2019-03-11T00:59:46.417Z,929.79
2019-03-11T00:59:59.436Z,929.78
2019-03-11T01:00:12.451Z,929.76
2019-03-11T01:00:25.471Z,929.84
2019-03-11T01:00:38.001Z,929.8
2019-03-11T01:00:51.042Z,929.83
2019-03-11T01:01:04.080Z,929.8
2019-03-11T01:01:17.014Z,929.86
2019-03-11T01:01:30.119Z,929.85
2019-03-11T01:01:43.130Z,929.89
2019-03-11T01:01:56.073Z,929.86
2019-03-11T01:02:09.029Z,929.91
2019-03-11T01:02:21.996Z,929.91
2019-03-11T01:02:35.004Z,929.92
2019-03-11T01:02:47.985Z,929.94
2019-03-11T01:03:01.003Z,929.93
2019-03-11T01:03:14.014Z,929.95
2019-03-11T01:03:27.048Z,929.89
2019-03-11T01:03:40.020Z,929.95
2019-03-11T01:03:53.067Z,930.02
2019-03-11T01:04:06.030Z,929.98
2019-03-11T01:04:19.084Z,930.05
2019-03-11T01:04:32.075Z,929.98
2019-03-11T01:04:45.081Z,930.02
2019-03-11T01:04:58.048Z,930.02
2019-03-11T01:05:11.005Z,930
2019-03-11T01:05:24.008Z,929.95
2019-03-11T01:05:36.976Z,929.92
2019-03-11T01:05:49.985Z,929.97
2019-03-11T01:06:03.070Z,929.98
2019-03-11T01:06:16.053Z,929.97
2019-03-11T01:06:29.091Z,929.97
2019-03-11T01:06:42.071Z,929.99
2019-03-11T01:06:54.653Z,929.99
2019-03-11T01:07:07.651Z,930.02
2019-03-11T01:07:20.665Z,930
2019-03-11T01:07:33.652Z,930
2019-03-11T01:07:46.692Z,930.01
2019-03-11T01:07:59.724Z,930.03
2019-03-11T01:08:12.721Z,930.04
2019-03-11T01:08:25.655Z,930.03
2019-03-11T01:08:39.258Z,930.06
2019-03-11T01:08:52.237Z,930.04
2019-03-11T01:09:05.299Z,929.95
2019-03-11T01:09:18.350Z,930.01
2019-03-11T01:09:31.426Z,930.04
2019-03-11T01:09:43.959Z,930
2019-03-11T01:09:56.959Z,930.02
2019-03-11T01:10:09.915Z,930
2019-03-11T01:10:23.008Z,930.03
2019-03-11T01:10:36.045Z,930.05
2019-03-11T01:10:49.082Z,930.1
2019-03-11T01:11:02.131Z,929.99
2019-03-11T01:11:15.214Z,930.04
2019-03-11T01:11:28.797Z,930.02
2019-03-11T01:11:41.814Z,930.04
2019-03-11T01:11:54.838Z,930.05
2019-03-11T01:12:07.872Z,930.01
2019-03-11T01:12:20.985Z,929.97
2019-03-11T01:12:34.036Z,930.01
2019-03-11T01:12:47.107Z,929.99
2019-03-11T01:13:00.044Z,929.99
2019-03-11T01:13:13.067Z,930.03
2019-03-11T01:13:26.127Z,930
2019-03-11T01:13:39.180Z,929.93
2019-03-11T01:13:52.225Z,929.96
2019-03-11T01:14:05.274Z,929.96
2019-03-11T01:14:18.338Z,929.92
2019-03-11T01:14:31.305Z,929.92
2019-03-11T01:14:46.194Z,929.91
2019-03-11T01:14:59.253Z,929.9
2019-03-11T01:15:12.210Z,929.88
2019-03-11T01:15:25.197Z,929.88
2019-03-11T01:15:38.215Z,929.91
2019-03-11T01:15:51.221Z,929.93
2019-03-11T01:16:04.232Z,929.99
2019-03-11T01:16:17.278Z,929.95
2019-03-11T01:16:30.309Z,929.89
2019-03-11T01:16:43.369Z,929.93
2019-03-11T01:16:56.415Z,929.99
2019-03-11T01:17:09.432Z,929.97
2019-03-11T01:17:22.433Z,929.97
2019-03-11T01:17:35.404Z,929.96
2019-03-11T01:17:48.398Z,930
2019-03-11T01:18:01.445Z,929.98
2019-03-11T01:18:14.014Z,930.01
2019-03-11T01:18:27.073Z,929.92
2019-03-11T01:18:40.157Z,929.89
2019-03-11T01:18:53.226Z,929.95
2019-03-11T01:19:06.195Z,929.91
2019-03-11T01:19:19.226Z,929.94
2019-03-11T01:19:32.241Z,929.91
2019-03-11T01:19:45.259Z,929.87
2019-03-11T01:19:58.308Z,929.88
2019-03-11T01:20:11.292Z,929.9
2019-03-11T01:20:24.319Z,929.91
2019-03-11T01:20:37.388Z,929.89
2019-03-11T01:20:50.375Z,929.92
2019-03-11T01:21:03.366Z,929.84
2019-03-11T01:21:16.386Z,929.89
2019-03-11T01:21:28.917Z,929.9
2019-03-11T01:21:41.926Z,929.89
2019-03-11T01:21:54.885Z,929.9
2019-03-11T01:22:07.881Z,929.91
2019-03-11T01:22:20.925Z,929.87
2019-03-11T01:22:33.925Z,929.88
2019-03-11T01:22:46.905Z,929.89
2019-03-11T01:22:59.922Z,929.89
2019-03-11T01:23:12.922Z,929.9
2019-03-11T01:23:25.946Z,929.9
2019-03-11T01:23:38.931Z,929.94
2019-03-11T01:23:51.986Z,929.93
2019-03-11T01:24:05.023Z,929.91
2019-03-11T01:24:18.123Z,929.9
2019-03-11T01:24:31.171Z,929.92
2019-03-11T01:24:44.171Z,929.93
2019-03-11T01:24:57.205Z,930
2019-03-11T01:25:12.076Z,929.96
2019-03-11T01:25:25.036Z,929.99
2019-03-11T01:25:38.030Z,929.95
2019-03-11T01:25:51.073Z,929.96
2019-03-11T01:26:04.139Z,929.95
2019-03-11T01:26:17.149Z,929.96
2019-03-11T01:26:30.819Z,929.96
2019-03-11T01:26:43.864Z,929.94
2019-03-11T01:26:56.880Z,929.94
2019-03-11T01:27:09.889Z,929.93
2019-03-11T01:27:22.892Z,929.94
2019-03-11T01:27:35.905Z,929.91
2019-03-11T01:27:48.903Z,929.91
2019-03-11T01:28:01.890Z,929.86
2019-03-11T01:28:14.843Z,929.85
2019-03-11T01:28:27.851Z,929.84
2019-03-11T01:28:40.846Z,929.82
2019-03-11T01:28:53.852Z,929.83
2019-03-11T01:29:06.853Z,929.83
2019-03-11T01:29:19.842Z,929.87
2019-03-11T01:29:32.836Z,929.86
2019-03-11T01:29:45.839Z,929.81
2019-03-11T01:29:58.851Z,929.83
2019-03-11T01:30:11.817Z,929.8
2019-03-11T01:30:24.905Z,929.8
2019-03-11T01:30:38.031Z,929.77
2019-03-11T01:30:51.076Z,929.8
2019-03-11T01:31:04.165Z,929.78
2019-03-11T01:31:17.194Z,929.8
2019-03-11T01:31:30.134Z,929.81
2019-03-11T01:31:44.153Z,929.8
2019-03-11T01:31:57.171Z,929.79
2019-03-11T01:32:10.301Z,929.83
2019-03-11T01:32:23.313Z,929.83
2019-03-11T01:32:36.389Z,929.84
2019-03-11T01:32:49.443Z,929.83
2019-03-11T01:33:02.502Z,929.86
2019-03-11T01:33:15.463Z,929.85
2019-03-11T01:33:28.442Z,929.87
2019-03-11T01:33:41.456Z,929.85
2019-03-11T01:33:54.513Z,929.86
2019-03-11T01:34:07.536Z,929.88
2019-03-11T01:34:20.519Z,929.93
2019-03-11T01:34:33.525Z,929.88
2019-03-11T01:34:46.573Z,929.84
2019-03-11T01:34:59.625Z,929.91
2019-03-11T01:35:12.598Z,929.85
2019-03-11T01:35:25.651Z,929.85
2019-03-11T01:35:38.159Z,929.89
2019-03-11T01:35:51.136Z,929.96
2019-03-11T01:36:04.095Z,929.91
2019-03-11T01:36:17.146Z,929.92
2019-03-11T01:36:30.422Z,929.93
2019-03-11T01:36:43.444Z,929.95
2019-03-11T01:36:56.508Z,929.9
2019-03-11T01:37:09.070Z,929.94
2019-03-11T01:37:22.073Z,929.97
2019-03-11T01:37:35.058Z,929.94
2019-03-11T01:37:48.010Z,929.97
2019-03-11T01:38:00.541Z,930.05
2019-03-11T01:38:13.080Z,930.02
2019-03-11T01:38:26.054Z,930.02
2019-03-11T01:38:39.038Z,930.02
2019-03-11T01:38:52.056Z,930.02
2019-03-11T01:39:05.134Z,930.09
2019-03-11T01:39:18.141Z,930.04
2019-03-11T01:39:31.110Z,930.02
2019-03-11T01:39:44.072Z,930.07
2019-03-11T01:39:57.042Z,930.08
2019-03-11T01:40:10.055Z,930.08
2019-03-11T01:40:23.118Z,930.05
2019-03-11T01:40:36.103Z,930.1
2019-03-11T01:40:49.111Z,930.09
2019-03-11T01:41:02.146Z,930.14
2019-03-11T01:41:14.773Z,930.15
2019-03-11T01:41:27.834Z,930.15
2019-03-11T01:41:41.464Z,930.14
2019-03-11T01:41:54.468Z,930.11
2019-03-11T01:42:07.503Z,930.13
2019-03-11T01:42:20.495Z,930.12
2019-03-11T01:42:33.496Z,930.14
2019-03-11T01:42:46.523Z,930.1
2019-03-11T01:43:01.932Z,930.12
2019-03-11T01:43:14.891Z,930.1
2019-03-11T01:43:27.876Z,930.18
2019-03-11T01:43:40.894Z,930.09
2019-03-11T01:43:53.885Z,930.16
2019-03-11T01:44:06.878Z,930.08
2019-03-11T01:44:19.886Z,930.1
2019-03-11T01:44:32.924Z,930.13
2019-03-11T01:44:45.998Z,930.08
2019-03-11T01:44:59.050Z,930.13
2019-03-11T01:45:11.586Z,930.08
2019-03-11T01:45:24.583Z,930.12
2019-03-11T01:45:37.585Z,930.1
2019-03-11T01:45:50.548Z,930.12
2019-03-11T01:46:03.618Z,930.07
2019-03-11T01:46:16.597Z,930.13
2019-03-11T01:46:29.619Z,930.11
2019-03-11T01:46:42.211Z,930.09
2019-03-11T01:46:55.267Z,930.12
2019-03-11T01:47:08.290Z,930.09
2019-03-11T01:47:21.264Z,930.12
2019-03-11T01:47:34.225Z,930.12
2019-03-11T01:47:47.201Z,930.09
2019-03-11T01:48:00.177Z,930.12
2019-03-11T01:48:13.212Z,930.11
2019-03-11T01:48:26.228Z,930.09
2019-03-11T01:48:39.184Z,930.11
2019-03-11T01:48:52.179Z,930.1
2019-03-11T01:49:05.149Z,930.11
2019-03-11T01:49:18.197Z,930.09
2019-03-11T01:49:33.924Z,930.04
2019-03-11T01:49:46.887Z,930.05
2019-03-11T01:49:59.957Z,930.03
2019-03-11T01:50:12.989Z,930.07
2019-03-11T01:50:26.010Z,930.03
2019-03-11T01:50:39.032Z,930.06
2019-03-11T01:50:52.023Z,930.06
2019-03-11T01:51:05.024Z,930.03
2019-03-11T01:51:17.570Z,930.02
2019-03-11T01:51:30.544Z,930.07
2019-03-11T01:51:43.518Z,930.06
2019-03-11T01:51:56.576Z,930.04
2019-03-11T01:52:09.173Z,930.02
2019-03-11T01:52:22.246Z,929.98
2019-03-11T01:52:35.251Z,929.98
2019-03-11T01:52:48.267Z,929.96
2019-03-11T01:53:01.264Z,929.98
2019-03-11T01:53:14.317Z,929.99
2019-03-11T01:53:27.413Z,930
2019-03-11T01:53:40.390Z,929.98
2019-03-11T01:53:53.432Z,929.99
2019-03-11T01:54:06.446Z,929.99
2019-03-11T01:54:19.473Z,929.99
2019-03-11T01:54:32.444Z,930
2019-03-11T01:54:45.497Z,930.02
2019-03-11T01:54:58.534Z,930.04
2019-03-11T01:55:11.491Z,930.02
2019-03-11T01:55:24.518Z,930.03
2019-03-11T01:55:37.516Z,930.02
2019-03-11T01:55:50.518Z,930.07
2019-03-11T01:56:03.069Z,930.03
2019-03-11T01:56:16.149Z,930.09
2019-03-11T01:56:29.180Z,930.08
2019-03-11T01:56:43.087Z,930.1
2019-03-11T01:56:56.117Z,930.11
2019-03-11T01:57:08.704Z,930.1
2019-03-11T01:57:21.688Z,930.1
2019-03-11T01:57:34.700Z,930.16
2019-03-11T01:57:47.743Z,930.18
2019-03-11T01:58:00.803Z,930.13
2019-03-11T01:58:13.822Z,930.19
2019-03-11T01:58:26.807Z,930.19
2019-03-11T01:58:39.811Z,930.19
2019-03-11T01:58:52.870Z,930.17
2019-03-11T01:59:05.893Z,930.17
2019-03-11T01:59:18.939Z,930.17
2019-03-11T01:59:31.952Z,930.19
2019-03-11T01:59:45.002Z,930.18
2019-03-11T01:59:58.039Z,930.16
2019-03-11T02:00:10.996Z,930.22
2019-03-11T02:00:24.048Z,930.17
2019-03-11T02:00:37.127Z,930.19
2019-03-11T02:00:50.109Z,930.2
2019-03-11T02:01:03.108Z,930.18
2019-03-11T02:01:16.079Z,930.19
2019-03-11T02:01:29.061Z,930.25
2019-03-11T02:01:42.073Z,930.24
2019-03-11T02:01:55.173Z,930.22
2019-03-11T02:02:08.163Z,930.21
2019-03-11T02:02:21.215Z,930.18
2019-03-11T02:02:34.257Z,930.21
2019-03-11T02:02:47.271Z,930.21
2019-03-11T02:03:00.299Z,930.23
2019-03-11T02:03:13.328Z,930.21
2019-03-11T02:03:26.323Z,930.24
2019-03-11T02:03:39.357Z,930.19
2019-03-11T02:03:52.398Z,930.19
2019-03-11T02:04:05.432Z,930.17
2019-03-11T02:04:18.513Z,930.2
2019-03-11T02:04:31.598Z,930.23
2019-03-11T02:04:44.631Z,930.22
2019-03-11T02:04:57.568Z,930.21
2019-03-11T02:05:10.577Z,930.19
2019-03-11T02:05:23.663Z,930.23
2019-03-11T02:05:36.663Z,930.2
2019-03-11T02:05:49.611Z,930.19
2019-03-11T02:06:02.592Z,930.2
2019-03-11T02:06:15.566Z,930.2
2019-03-11T02:06:28.602Z,930.21
2019-03-11T02:06:41.590Z,930.2
2019-03-11T02:06:54.665Z,930.22
2019-03-11T02:07:07.600Z,930.28
2019-03-11T02:07:20.603Z,930.22
2019-03-11T02:07:33.572Z,930.24
2019-03-11T02:07:46.614Z,930.2
2019-03-11T02:07:59.650Z,930.17
2019-03-11T02:08:12.635Z,930.2
2019-03-11T02:08:25.679Z,930.16
2019-03-11T02:08:38.668Z,930.13
2019-03-11T02:08:51.689Z,930.15
2019-03-11T02:09:04.736Z,930.13
2019-03-11T02:09:17.653Z,930.14
2019-03-11T02:09:30.660Z,930.1
2019-03-11T02:09:43.702Z,930.08
2019-03-11T02:09:56.713Z,930.05
2019-03-11T02:10:09.719Z,930.07
2019-03-11T02:10:22.731Z,930.04
2019-03-11T02:10:35.745Z,930.05
2019-03-11T02:10:48.754Z,930.04
2019-03-11T02:11:01.775Z,930.03
2019-03-11T02:11:14.835Z,930.03
2019-03-11T02:11:27.903Z,930.08
2019-03-11T02:11:40.898Z,930.04
2019-03-11T02:11:54.680Z,930.07
2019-03-11T02:12:07.689Z,930.05
2019-03-11T02:12:20.745Z,930.02
2019-03-11T02:12:33.322Z,930.04
2019-03-11T02:12:46.345Z,930.04
2019-03-11T02:12:59.353Z,930.03
2019-03-11T02:13:12.389Z,930.01
2019-03-11T02:13:25.445Z,930.02
2019-03-11T02:13:38.482Z,930.04
2019-03-11T02:13:51.464Z,930.07
2019-03-11T02:14:04.459Z,930.02
2019-03-11T02:14:17.453Z,930.03
2019-03-11T02:14:30.490Z,930.05
2019-03-11T02:14:43.454Z,930.07
2019-03-11T02:14:56.459Z,930.11
2019-03-11T02:15:09.542Z,930.13
2019-03-11T02:15:22.550Z,930.09
2019-03-11T02:15:35.537Z,930.09
2019-03-11T02:15:48.530Z,930.12
2019-03-11T02:16:01.569Z,930.09
2019-03-11T02:16:14.572Z,930.08
2019-03-11T02:16:27.614Z,930.09
2019-03-11T02:16:40.642Z,930.08
2019-03-11T02:16:53.684Z,930.07
2019-03-11T02:17:06.635Z,930.07
2019-03-11T02:17:19.684Z,930.07
2019-03-11T02:17:32.707Z,930.09
2019-03-11T02:17:45.804Z,930.08
2019-03-11T02:17:58.818Z,930.04
2019-03-11T02:18:11.832Z,930.04
2019-03-11T02:18:24.879Z,930.04
2019-03-11T02:18:37.934Z,930.04
2019-03-11T02:18:50.940Z,930.04
2019-03-11T02:19:03.922Z,930.05
2019-03-11T02:19:16.918Z,930
2019-03-11T02:19:29.846Z,930.02
2019-03-11T02:19:42.806Z,930.02
2019-03-11T02:19:55.825Z,930.02
2019-03-11T02:20:08.815Z,929.99
2019-03-11T02:20:21.859Z,930.02
2019-03-11T02:20:34.926Z,930.01
2019-03-11T02:20:47.978Z,930.03
2019-03-11T02:21:01.044Z,929.97
2019-03-11T02:21:14.059Z,929.99
2019-03-11T02:21:27.017Z,929.97
2019-03-11T02:21:40.004Z,929.99
2019-03-11T02:21:53.032Z,929.98
2019-03-11T02:22:06.130Z,929.94
2019-03-11T02:22:19.146Z,929.94
2019-03-11T02:22:32.102Z,929.92
2019-03-11T02:22:45.101Z,929.95
2019-03-11T02:22:57.686Z,929.93
2019-03-11T02:23:10.718Z,929.95
2019-03-11T02:23:23.753Z,929.94
2019-03-11T02:23:36.731Z,929.97
2019-03-11T02:23:49.668Z,929.94
2019-03-11T02:24:02.662Z,929.91
2019-03-11T02:24:15.731Z,929.95
2019-03-11T02:24:28.774Z,929.96
2019-03-11T02:24:41.762Z,929.97
2019-03-11T02:24:54.793Z,929.97
2019-03-11T02:25:07.407Z,929.95
2019-03-11T02:25:20.385Z,929.92
2019-03-11T02:25:33.403Z,929.92
2019-03-11T02:25:46.449Z,929.9
2019-03-11T02:25:59.506Z,929.95
2019-03-11T02:26:12.530Z,929.92
2019-03-11T02:26:25.063Z,929.92
2019-03-11T02:26:38.048Z,929.91
2019-03-11T02:26:51.061Z,929.9
2019-03-11T02:27:05.070Z,929.93
2019-03-11T02:27:18.078Z,929.91
2019-03-11T02:27:31.141Z,929.88
2019-03-11T02:27:44.177Z,929.95
2019-03-11T02:27:57.188Z,929.87
2019-03-11T02:28:10.202Z,929.86
2019-03-11T02:28:23.235Z,929.87
2019-03-11T02:28:35.878Z,929.9
2019-03-11T02:28:48.930Z,929.89
2019-03-11T02:29:01.900Z,929.89
2019-03-11T02:29:14.879Z,929.88
2019-03-11T02:29:27.457Z,929.9
2019-03-11T02:29:40.480Z,929.86
2019-03-11T02:29:53.497Z,929.86
2019-03-11T02:30:06.061Z,929.82
2019-03-11T02:30:19.141Z,929.87
2019-03-11T02:30:31.690Z,929.89
2019-03-11T02:30:44.684Z,929.84
2019-03-11T02:30:57.387Z,929.92
2019-03-11T02:31:10.456Z,929.86
2019-03-11T02:31:23.468Z,929.86
2019-03-11T02:31:36.475Z,929.86
2019-03-11T02:31:49.486Z,929.86
2019-03-11T02:32:02.521Z,929.87
2019-03-11T02:32:15.120Z,929.89
2019-03-11T02:32:29.782Z,929.88
2019-03-11T02:32:42.869Z,929.88
2019-03-11T02:32:55.930Z,929.91
2019-03-11T02:33:08.987Z,929.9
2019-03-11T02:33:21.999Z,929.94
2019-03-11T02:33:35.082Z,929.94
2019-03-11T02:33:48.159Z,929.94
2019-03-11T02:34:01.291Z,929.94
2019-03-11T02:34:13.883Z,929.94
2019-03-11T02:34:26.942Z,929.96
2019-03-11T02:34:39.984Z,929.98
2019-03-11T02:34:53.018Z,930
2019-03-11T02:35:06.074Z,930.02
2019-03-11T02:35:19.131Z,930
2019-03-11T02:35:32.187Z,930
2019-03-11T02:35:44.743Z,930.05
2019-03-11T02:35:57.301Z,930.06
2019-03-11T02:36:09.940Z,930.02
2019-03-11T02:36:22.931Z,930.03
2019-03-11T02:36:35.524Z,930.06
2019-03-11T02:36:48.536Z,930.06
2019-03-11T02:37:01.774Z,930.07
2019-03-11T02:37:14.871Z,930.06
2019-03-11T02:37:27.948Z,930.06
2019-03-11T02:37:40.930Z,930.08
2019-03-11T02:37:53.909Z,930.05
2019-03-11T02:38:07.085Z,930.13
2019-03-11T02:38:20.111Z,930.04
2019-03-11T02:38:33.148Z,930.08
2019-03-11T02:38:46.126Z,930.13
2019-03-11T02:38:58.692Z,930.1
2019-03-11T02:39:11.694Z,930.09
2019-03-11T02:39:24.692Z,930.12
2019-03-11T02:39:37.745Z,930.12
2019-03-11T02:39:50.741Z,930.14
2019-03-11T02:40:03.863Z,930.15
2019-03-11T02:40:16.881Z,930.14
2019-03-11T02:40:29.954Z,930.15
2019-03-11T02:40:43.062Z,930.12
2019-03-11T02:40:56.128Z,930.12
2019-03-11T02:41:09.143Z,930.15
2019-03-11T02:41:21.734Z,930.15
2019-03-11T02:41:34.699Z,930.13
2019-03-11T02:41:47.714Z,930.16
2019-03-11T02:42:00.513Z,930.15
2019-03-11T02:42:13.536Z,930.18
2019-03-11T02:42:26.133Z,930.17
2019-03-11T02:42:39.174Z,930.2
2019-03-11T02:42:52.181Z,930.18
2019-03-11T02:43:05.230Z,930.21
2019-03-11T02:43:18.203Z,930.23